TFM - Tactical Decision Aid (Experimental) INFO Settings
ID: Runway Winds: CIG/VIS Threshold: METAR Board: Map:

KATL - Atlanta-Hartsfield Jackson Intl

Updated at: 1715 UTC 25 Feb 2018
Latest TAF at: 1600 UTC 25 Feb 2018

TAF Board

Time1652Z25/18Z25/19Z25/20Z25/21Z25/22Z25/23Z26/00Z26/01Z26/02Z26/03Z26/04Z26/05Z26/06Z
TypeOBSPRVLPRVLPRVLPRVLPRVLPRVLPRVLPRVLPRVLPRVLPRVLPRVLPRVL
VIS10>6>6>6>6>6>66666633
CIG85252525252525151515151599
CoverOVCOVCOVCOVCOVCOVCOVCOVCOVCOVCOVCOVCOVCOVC
FltCatVFRMVFRMVFRMVFRMVFRMVFRMVFRMVFRMVFRMVFRMVFRMVFRIFRIFR
WX---RA-RA-RA-RA-RA-RABR VCSHBR VCSHBR VCSHBR VCSHBR VCSH-RA BR-RA BR
WDir250280280280280280280VRBVRBVRBVRBVRB3030
WSpd48888883333333
WGst----------------------------
TAF
KATL 251600Z 2516/2618 28008KT P6SM -RA OVC025
  FM260000 VRB03KT 6SM BR VCSH OVC015
  FM260500 03003KT 3SM -RA BR OVC009
  FM260900 13004KT 2SM -RA BR OVC006
  FM261500 34005KT 4SM -RA BR OVC015


METAR
KATL 251652Z 25004KT 10SM SCT006 OVC085 17/16 A3016 RMK AO2 RAE05 SLP210 P0000 T01670161
KATL 251552Z VRB03KT 9SM -RA SCT050 OVC075 17/16 A3015 RMK AO2 SLP206 P0005 T01670156

TAF/METAR Board Legend

Potential Impact
  None Marginal Slight Moderate High
Visibility (sm) >5 3≤X≤5 1≤X<3 0.5≤X<1 <0.5
Ceiling (100 ft) >30 10≤X≤30 4≤X<10 2≤X<4 <2
Wind Speed (kt) <10 10≤X<20 20≤X<30 ≥30
Wind Gust (kt) <15 15≤X<25 25≤X<35 ≥35
Weather No Wx Reported VCTS -TS,-FZRA TS,FZRA +TS,+FZRA